Главная страница
METAR-TAF:

METAR-TAF

Аэропорты :

Международный аэропорт имени Амани Диори

Ниамей, Нигер

широта: 13-29N, долгота: 002-10E, высота над уровнем моря: 223 м

Текущие метеонаблюдения

Эта сводка был подготовлена 52 минут назад, в 06:00 UTC
Ветер 8 Узел от южный-юго-западный
Температура 28°C
Влажность 51%
Давление 1012 hPa
Видимость 10 км и более
Нет облачности ниже 1500 м, и нет кучево-дождевой облачности

METAR: DRRN 170600Z 21008KT CAVOK 28/17 Q1012 NOSIG

Время: 07:52 (06:52 UTC)

Прогноз

Эта сводка был подготовлена 1 час и 52 минут назад, в 05:00 UTC
Прогноз действительный с 17-го 06 UTC до 18-го 12 UTC
Ветер 10 Узел от юго-западный
Видимость: 8000 м
Вероятность 30% :
временами
С 17-го 18 UTC до 17-го 24 UTC
небольшая облачность на высоте 3000 фута
небольшая облачность на высоте 3300 фута, Кучево-дождевые.
гроза

TAF: DRRN 170500Z 1706/1812 22010KT 8000 NSC PROB30 TEMPO 1718/1724 TS FEW030 FEW033CB

Метеонаблюдения и прогнозы для более 4000 аэропортов (сводки METAR и TAF).

Имеющиеся станции представлены на карте желтыми и красными точками.

Чтобы увидеть название станции, наведите на нее мышь.

Затем щелкните, чтобы увидеть метеонаблюдения и метеопрогнозы.

Управление картой: чтобы увеличить масштаб, щелкните зеленые кнопки с черным крестиком; чтобы уменьшить масштаб, щелкните зеленую кнопку с тире; для просмотра соседних карт щелкайте зеленые стрелки.


METAR-TAF: